sensor_id;sensor_type;location;lat;lon;timestamp;temperature;humidity
17728;DHT22;8984;49.268;12.302;2024-02-26T00:02:13;3.60;99.90
17728;DHT22;8984;49.268;12.302;2024-02-26T00:04:46;3.40;99.90
17728;DHT22;8984;49.268;12.302;2024-02-26T00:07:15;3.40;99.90
17728;DHT22;8984;49.268;12.302;2024-02-26T00:10:02;3.30;99.90
17728;DHT22;8984;49.268;12.302;2024-02-26T00:12:38;3.40;99.90
17728;DHT22;8984;49.268;12.302;2024-02-26T00:15:27;3.40;99.90
17728;DHT22;8984;49.268;12.302;2024-02-26T00:18:11;3.20;99.90
17728;DHT22;8984;49.268;12.302;2024-02-26T00:20:57;3.20;99.90
17728;DHT22;8984;49.268;12.302;2024-02-26T00:23:49;3.20;99.90
17728;DHT22;8984;49.268;12.302;2024-02-26T00:26:24;3.30;99.90
17728;DHT22;8984;49.268;12.302;2024-02-26T00:29:06;3.20;99.90
17728;DHT22;8984;49.268;12.302;2024-02-26T00:31:41;3.30;99.90
17728;DHT22;8984;49.268;12.302;2024-02-26T00:34:27;3.30;99.90
17728;DHT22;8984;49.268;12.302;2024-02-26T00:36:55;3.30;99.90
17728;DHT22;8984;49.268;12.302;2024-02-26T00:39:26;3.40;99.90
17728;DHT22;8984;49.268;12.302;2024-02-26T00:41:56;3.30;99.90
17728;DHT22;8984;49.268;12.302;2024-02-26T00:44:29;3.20;99.90
17728;DHT22;8984;49.268;12.302;2024-02-26T00:46:58;3.20;99.90
17728;DHT22;8984;49.268;12.302;2024-02-26T00:49:33;3.20;99.90
17728;DHT22;8984;49.268;12.302;2024-02-26T00:52:16;3.20;99.90
17728;DHT22;8984;49.268;12.302;2024-02-26T00:54:46;3.20;99.90
17728;DHT22;8984;49.268;12.302;2024-02-26T00:57:21;3.20;99.90
17728;DHT22;8984;49.268;12.302;2024-02-26T00:59:50;3.30;99.90
17728;DHT22;8984;49.268;12.302;2024-02-26T01:02:22;3.20;99.90
17728;DHT22;8984;49.268;12.302;2024-02-26T01:04:56;3.20;99.90
17728;DHT22;8984;49.268;12.302;2024-02-26T01:07:32;3.10;99.90
17728;DHT22;8984;49.268;12.302;2024-02-26T01:10:04;3.20;99.90
17728;DHT22;8984;49.268;12.302;2024-02-26T01:12:40;3.10;99.90
17728;DHT22;8984;49.268;12.302;2024-02-26T01:15:25;3.10;99.90
17728;DHT22;8984;49.268;12.302;2024-02-26T01:18:18;3.00;99.90
17728;DHT22;8984;49.268;12.302;2024-02-26T01:20:53;3.00;99.90
17728;DHT22;8984;49.268;12.302;2024-02-26T01:23:45;3.10;99.90
17728;DHT22;8984;49.268;12.302;2024-02-26T01:26:27;2.90;99.90
17728;DHT22;8984;49.268;12.302;2024-02-26T01:28:55;2.90;99.90
17728;DHT22;8984;49.268;12.302;2024-02-26T01:31:42;2.90;99.90
17728;DHT22;8984;49.268;12.302;2024-02-26T01:34:25;2.80;99.90
17728;DHT22;8984;49.268;12.302;2024-02-26T01:37:08;2.70;99.90
17728;DHT22;8984;49.268;12.302;2024-02-26T01:39:36;2.60;99.90
17728;DHT22;8984;49.268;12.302;2024-02-26T01:42:41;2.60;99.90
17728;DHT22;8984;49.268;12.302;2024-02-26T01:45:17;2.60;99.90
17728;DHT22;8984;49.268;12.302;2024-02-26T01:47:49;2.70;99.90
17728;DHT22;8984;49.268;12.302;2024-02-26T01:50:25;2.60;99.90
17728;DHT22;8984;49.268;12.302;2024-02-26T01:53:13;2.50;99.90
17728;DHT22;8984;49.268;12.302;2024-02-26T01:55:43;2.50;99.90
17728;DHT22;8984;49.268;12.302;2024-02-26T01:58:15;2.60;99.90
17728;DHT22;8984;49.268;12.302;2024-02-26T02:00:50;2.60;99.90
17728;DHT22;8984;49.268;12.302;2024-02-26T02:03:21;2.50;99.90
17728;DHT22;8984;49.268;12.302;2024-02-26T02:05:52;2.60;99.90
17728;DHT22;8984;49.268;12.302;2024-02-26T02:08:28;2.60;99.90
17728;DHT22;8984;49.268;12.302;2024-02-26T02:10:58;2.60;99.90
17728;DHT22;8984;49.268;12.302;2024-02-26T02:13:30;2.60;99.90
17728;DHT22;8984;49.268;12.302;2024-02-26T02:16:02;2.60;99.90
17728;DHT22;8984;49.268;12.302;2024-02-26T02:18:29;2.60;99.90
17728;DHT22;8984;49.268;12.302;2024-02-26T02:21:00;2.60;99.90
17728;DHT22;8984;49.268;12.302;2024-02-26T02:23:29;2.60;99.90
17728;DHT22;8984;49.268;12.302;2024-02-26T02:26:00;2.60;99.90
17728;DHT22;8984;49.268;12.302;2024-02-26T02:28:27;2.50;99.90
17728;DHT22;8984;49.268;12.302;2024-02-26T02:31:00;2.50;99.90
17728;DHT22;8984;49.268;12.302;2024-02-26T02:33:27;2.40;99.90
17728;DHT22;8984;49.268;12.302;2024-02-26T02:35:58;2.40;99.90
17728;DHT22;8984;49.268;12.302;2024-02-26T02:38:29;2.40;99.90
17728;DHT22;8984;49.268;12.302;2024-02-26T02:40:58;2.40;99.90
17728;DHT22;8984;49.268;12.302;2024-02-26T02:43:26;2.30;99.90
17728;DHT22;8984;49.268;12.302;2024-02-26T02:46:15;2.30;99.90
17728;DHT22;8984;49.268;12.302;2024-02-26T02:48:45;2.40;99.90
17728;DHT22;8984;49.268;12.302;2024-02-26T02:51:15;2.50;99.90
17728;DHT22;8984;49.268;12.302;2024-02-26T02:53:43;2.40;99.90
17728;DHT22;8984;49.268;12.302;2024-02-26T02:56:11;2.40;99.90
17728;DHT22;8984;49.268;12.302;2024-02-26T02:58:39;2.40;99.90
17728;DHT22;8984;49.268;12.302;2024-02-26T03:01:10;2.40;99.90
17728;DHT22;8984;49.268;12.302;2024-02-26T03:03:44;2.40;99.90
17728;DHT22;8984;49.268;12.302;2024-02-26T03:06:17;2.40;99.90
17728;DHT22;8984;49.268;12.302;2024-02-26T03:08:48;2.50;99.90
17728;DHT22;8984;49.268;12.302;2024-02-26T03:11:21;2.40;99.90
17728;DHT22;8984;49.268;12.302;2024-02-26T03:13:54;2.50;99.90
17728;DHT22;8984;49.268;12.302;2024-02-26T03:16:36;2.40;99.90
17728;DHT22;8984;49.268;12.302;2024-02-26T03:19:03;2.40;99.90
17728;DHT22;8984;49.268;12.302;2024-02-26T03:21:34;2.40;99.90
17728;DHT22;8984;49.268;12.302;2024-02-26T03:24:02;2.40;99.90
17728;DHT22;8984;49.268;12.302;2024-02-26T03:26:32;2.40;99.90
17728;DHT22;8984;49.268;12.302;2024-02-26T03:29:02;2.40;99.90
17728;DHT22;8984;49.268;12.302;2024-02-26T03:31:52;2.40;99.90
17728;DHT22;8984;49.268;12.302;2024-02-26T03:34:29;2.40;99.90
17728;DHT22;8984;49.268;12.302;2024-02-26T03:36:59;2.40;99.90
17728;DHT22;8984;49.268;12.302;2024-02-26T03:39:27;2.40;99.90
17728;DHT22;8984;49.268;12.302;2024-02-26T03:42:02;2.40;99.90
17728;DHT22;8984;49.268;12.302;2024-02-26T03:44:31;2.40;99.90
17728;DHT22;8984;49.268;12.302;2024-02-26T03:46:59;2.40;99.90
17728;DHT22;8984;49.268;12.302;2024-02-26T03:49:54;2.30;99.90
17728;DHT22;8984;49.268;12.302;2024-02-26T03:52:21;2.30;99.90
17728;DHT22;8984;49.268;12.302;2024-02-26T03:54:48;2.30;99.90
17728;DHT22;8984;49.268;12.302;2024-02-26T03:57:15;2.20;99.90
17728;DHT22;8984;49.268;12.302;2024-02-26T03:59:42;2.30;99.90
17728;DHT22;8984;49.268;12.302;2024-02-26T04:02:08;2.30;99.90
17728;DHT22;8984;49.268;12.302;2024-02-26T04:04:35;2.20;99.90
17728;DHT22;8984;49.268;12.302;2024-02-26T04:07:03;2.20;99.90
17728;DHT22;8984;49.268;12.302;2024-02-26T04:09:31;2.30;99.90
17728;DHT22;8984;49.268;12.302;2024-02-26T04:11:58;2.30;99.90
17728;DHT22;8984;49.268;12.302;2024-02-26T04:14:25;2.30;99.90
17728;DHT22;8984;49.268;12.302;2024-02-26T04:16:52;2.30;99.90
17728;DHT22;8984;49.268;12.302;2024-02-26T04:19:20;2.30;99.90
17728;DHT22;8984;49.268;12.302;2024-02-26T04:21:46;2.30;99.90
17728;DHT22;8984;49.268;12.302;2024-02-26T04:24:15;2.30;99.90
17728;DHT22;8984;49.268;12.302;2024-02-26T04:26:41;2.30;99.90
17728;DHT22;8984;49.268;12.302;2024-02-26T04:29:08;2.30;99.90
17728;DHT22;8984;49.268;12.302;2024-02-26T04:31:37;2.30;99.90
17728;DHT22;8984;49.268;12.302;2024-02-26T04:34:05;2.30;99.90
17728;DHT22;8984;49.268;12.302;2024-02-26T04:36:32;2.30;99.90
17728;DHT22;8984;49.268;12.302;2024-02-26T04:38:58;2.30;99.90
17728;DHT22;8984;49.268;12.302;2024-02-26T04:41:26;2.30;99.90
17728;DHT22;8984;49.268;12.302;2024-02-26T04:43:53;2.30;99.90
17728;DHT22;8984;49.268;12.302;2024-02-26T04:46:20;2.30;99.90
17728;DHT22;8984;49.268;12.302;2024-02-26T04:48:48;2.30;99.90
17728;DHT22;8984;49.268;12.302;2024-02-26T04:51:15;2.30;99.90
17728;DHT22;8984;49.268;12.302;2024-02-26T04:53:41;2.30;99.90
17728;DHT22;8984;49.268;12.302;2024-02-26T04:56:08;2.30;99.90
17728;DHT22;8984;49.268;12.302;2024-02-26T04:58:36;2.20;99.90
17728;DHT22;8984;49.268;12.302;2024-02-26T05:01:03;2.20;99.90
17728;DHT22;8984;49.268;12.302;2024-02-26T05:03:30;2.20;99.90
17728;DHT22;8984;49.268;12.302;2024-02-26T05:05:57;2.20;99.90
17728;DHT22;8984;49.268;12.302;2024-02-26T05:08:23;2.20;99.90
17728;DHT22;8984;49.268;12.302;2024-02-26T05:10:50;2.20;99.90
17728;DHT22;8984;49.268;12.302;2024-02-26T05:13:17;2.20;99.90
17728;DHT22;8984;49.268;12.302;2024-02-26T05:15:45;2.20;99.90
17728;DHT22;8984;49.268;12.302;2024-02-26T05:18:14;2.20;99.90
17728;DHT22;8984;49.268;12.302;2024-02-26T05:20:41;2.10;99.90
17728;DHT22;8984;49.268;12.302;2024-02-26T05:23:08;2.00;99.90
17728;DHT22;8984;49.268;12.302;2024-02-26T05:25:35;1.90;99.90
17728;DHT22;8984;49.268;12.302;2024-02-26T05:28:02;1.90;99.90
17728;DHT22;8984;49.268;12.302;2024-02-26T05:30:29;1.90;99.90
17728;DHT22;8984;49.268;12.302;2024-02-26T05:32:57;1.90;99.90
17728;DHT22;8984;49.268;12.302;2024-02-26T05:35:25;1.90;99.90
17728;DHT22;8984;49.268;12.302;2024-02-26T05:37:52;1.80;99.90
17728;DHT22;8984;49.268;12.302;2024-02-26T05:40:19;1.80;99.90
17728;DHT22;8984;49.268;12.302;2024-02-26T05:42:46;1.90;99.90
17728;DHT22;8984;49.268;12.302;2024-02-26T05:45:14;1.80;99.90
17728;DHT22;8984;49.268;12.302;2024-02-26T05:47:41;1.80;99.90
17728;DHT22;8984;49.268;12.302;2024-02-26T05:50:10;1.70;99.90
17728;DHT22;8984;49.268;12.302;2024-02-26T05:52:38;1.70;99.90
17728;DHT22;8984;49.268;12.302;2024-02-26T05:55:05;1.80;99.90
17728;DHT22;8984;49.268;12.302;2024-02-26T05:57:34;1.80;99.90
17728;DHT22;8984;49.268;12.302;2024-02-26T06:00:01;1.90;99.90
17728;DHT22;8984;49.268;12.302;2024-02-26T06:02:29;1.90;99.90
17728;DHT22;8984;49.268;12.302;2024-02-26T06:04:56;2.00;99.90
17728;DHT22;8984;49.268;12.302;2024-02-26T06:07:24;2.00;99.90
17728;DHT22;8984;49.268;12.302;2024-02-26T06:09:51;2.20;99.90
17728;DHT22;8984;49.268;12.302;2024-02-26T06:12:18;2.20;99.90
17728;DHT22;8984;49.268;12.302;2024-02-26T06:14:45;2.30;99.90
17728;DHT22;8984;49.268;12.302;2024-02-26T06:17:11;2.40;99.90
17728;DHT22;8984;49.268;12.302;2024-02-26T06:19:38;2.40;99.90
17728;DHT22;8984;49.268;12.302;2024-02-26T06:22:05;2.50;99.90
17728;DHT22;8984;49.268;12.302;2024-02-26T06:24:33;2.50;99.90
17728;DHT22;8984;49.268;12.302;2024-02-26T06:27:00;2.50;99.90
17728;DHT22;8984;49.268;12.302;2024-02-26T06:29:26;2.60;99.90
17728;DHT22;8984;49.268;12.302;2024-02-26T06:31:53;2.70;99.90
17728;DHT22;8984;49.268;12.302;2024-02-26T06:34:21;2.90;99.90
17728;DHT22;8984;49.268;12.302;2024-02-26T06:36:47;2.80;99.90
17728;DHT22;8984;49.268;12.302;2024-02-26T06:39:14;2.90;99.90
17728;DHT22;8984;49.268;12.302;2024-02-26T06:41:43;2.90;99.90
17728;DHT22;8984;49.268;12.302;2024-02-26T06:44:12;2.90;99.90
17728;DHT22;8984;49.268;12.302;2024-02-26T06:46:39;2.90;99.90
17728;DHT22;8984;49.268;12.302;2024-02-26T06:49:06;2.90;99.90
17728;DHT22;8984;49.268;12.302;2024-02-26T06:51:33;3.00;99.90
17728;DHT22;8984;49.268;12.302;2024-02-26T06:53:59;3.10;99.90
17728;DHT22;8984;49.268;12.302;2024-02-26T06:56:26;3.20;99.90
17728;DHT22;8984;49.268;12.302;2024-02-26T06:58:55;3.30;99.90
17728;DHT22;8984;49.268;12.302;2024-02-26T07:01:21;3.40;99.90
17728;DHT22;8984;49.268;12.302;2024-02-26T07:03:48;3.50;99.90
17728;DHT22;8984;49.268;12.302;2024-02-26T07:06:15;3.60;99.90
17728;DHT22;8984;49.268;12.302;2024-02-26T07:08:42;3.70;99.90
17728;DHT22;8984;49.268;12.302;2024-02-26T07:11:09;3.90;99.90
17728;DHT22;8984;49.268;12.302;2024-02-26T07:13:36;4.00;99.90
17728;DHT22;8984;49.268;12.302;2024-02-26T07:16:05;4.20;99.90
17728;DHT22;8984;49.268;12.302;2024-02-26T07:18:32;4.40;99.90
17728;DHT22;8984;49.268;12.302;2024-02-26T07:21:01;4.50;99.90
17728;DHT22;8984;49.268;12.302;2024-02-26T07:23:29;4.50;99.90
17728;DHT22;8984;49.268;12.302;2024-02-26T07:25:55;4.60;99.90
17728;DHT22;8984;49.268;12.302;2024-02-26T07:28:22;4.70;99.90
17728;DHT22;8984;49.268;12.302;2024-02-26T07:30:49;4.80;99.90
17728;DHT22;8984;49.268;12.302;2024-02-26T07:33:17;4.90;99.90
17728;DHT22;8984;49.268;12.302;2024-02-26T07:35:44;5.00;99.90
17728;DHT22;8984;49.268;12.302;2024-02-26T07:38:11;5.10;99.90
17728;DHT22;8984;49.268;12.302;2024-02-26T07:40:39;5.30;99.90
17728;DHT22;8984;49.268;12.302;2024-02-26T07:43:06;5.50;99.90
17728;DHT22;8984;49.268;12.302;2024-02-26T07:45:33;5.70;99.90
17728;DHT22;8984;49.268;12.302;2024-02-26T07:48:02;5.90;99.90
17728;DHT22;8984;49.268;12.302;2024-02-26T07:50:30;6.10;99.90
17728;DHT22;8984;49.268;12.302;2024-02-26T07:52:56;6.10;99.90
17728;DHT22;8984;49.268;12.302;2024-02-26T07:55:24;6.00;99.90
17728;DHT22;8984;49.268;12.302;2024-02-26T07:57:51;6.00;99.90
17728;DHT22;8984;49.268;12.302;2024-02-26T08:00:18;6.10;99.90
17728;DHT22;8984;49.268;12.302;2024-02-26T08:02:45;6.20;99.90
17728;DHT22;8984;49.268;12.302;2024-02-26T08:05:12;6.20;99.90
17728;DHT22;8984;49.268;12.302;2024-02-26T08:07:41;6.30;99.90
17728;DHT22;8984;49.268;12.302;2024-02-26T08:10:08;6.40;99.90
17728;DHT22;8984;49.268;12.302;2024-02-26T08:12:36;6.40;99.90
17728;DHT22;8984;49.268;12.302;2024-02-26T08:15:03;6.50;99.90
17728;DHT22;8984;49.268;12.302;2024-02-26T08:17:31;6.50;99.90
17728;DHT22;8984;49.268;12.302;2024-02-26T08:19:58;6.50;99.90
17728;DHT22;8984;49.268;12.302;2024-02-26T08:22:25;6.60;99.90
17728;DHT22;8984;49.268;12.302;2024-02-26T08:24:53;6.60;99.90
17728;DHT22;8984;49.268;12.302;2024-02-26T08:27:20;6.50;99.90
17728;DHT22;8984;49.268;12.302;2024-02-26T08:29:47;6.40;99.90
17728;DHT22;8984;49.268;12.302;2024-02-26T08:32:13;6.30;99.90
17728;DHT22;8984;49.268;12.302;2024-02-26T08:34:40;6.30;99.90
17728;DHT22;8984;49.268;12.302;2024-02-26T08:37:07;6.40;99.90
17728;DHT22;8984;49.268;12.302;2024-02-26T08:39:34;6.50;99.90
17728;DHT22;8984;49.268;12.302;2024-02-26T08:42:02;6.80;99.90
17728;DHT22;8984;49.268;12.302;2024-02-26T08:44:29;7.10;99.90
17728;DHT22;8984;49.268;12.302;2024-02-26T08:46:56;7.30;99.90
17728;DHT22;8984;49.268;12.302;2024-02-26T08:49:24;7.40;99.90
17728;DHT22;8984;49.268;12.302;2024-02-26T08:51:50;7.60;99.90
17728;DHT22;8984;49.268;12.302;2024-02-26T08:54:17;7.90;99.90
17728;DHT22;8984;49.268;12.302;2024-02-26T08:56:44;8.10;99.90
17728;DHT22;8984;49.268;12.302;2024-02-26T08:59:12;8.30;99.90
17728;DHT22;8984;49.268;12.302;2024-02-26T09:01:41;8.40;99.90
17728;DHT22;8984;49.268;12.302;2024-02-26T09:04:08;8.60;99.90
17728;DHT22;8984;49.268;12.302;2024-02-26T09:06:35;8.60;99.90
17728;DHT22;8984;49.268;12.302;2024-02-26T09:09:01;8.60;99.90
17728;DHT22;8984;49.268;12.302;2024-02-26T09:11:29;8.70;99.90
17728;DHT22;8984;49.268;12.302;2024-02-26T09:13:56;8.80;99.90
17728;DHT22;8984;49.268;12.302;2024-02-26T09:16:24;8.80;99.90
17728;DHT22;8984;49.268;12.302;2024-02-26T09:18:51;8.70;99.90
17728;DHT22;8984;49.268;12.302;2024-02-26T09:21:18;8.50;99.90
17728;DHT22;8984;49.268;12.302;2024-02-26T09:23:48;8.40;99.90
17728;DHT22;8984;49.268;12.302;2024-02-26T09:26:15;8.20;99.90
17728;DHT22;8984;49.268;12.302;2024-02-26T09:28:42;8.30;99.90
17728;DHT22;8984;49.268;12.302;2024-02-26T09:31:09;8.50;99.90
17728;DHT22;8984;49.268;12.302;2024-02-26T09:33:37;8.70;99.90
17728;DHT22;8984;49.268;12.302;2024-02-26T09:36:04;9.00;99.90
17728;DHT22;8984;49.268;12.302;2024-02-26T09:38:31;9.20;99.90
17728;DHT22;8984;49.268;12.302;2024-02-26T09:41:02;9.40;99.90
17728;DHT22;8984;49.268;12.302;2024-02-26T09:43:34;9.70;99.90
17728;DHT22;8984;49.268;12.302;2024-02-26T09:46:01;9.90;99.90
17728;DHT22;8984;49.268;12.302;2024-02-26T09:48:29;10.10;99.90
17728;DHT22;8984;49.268;12.302;2024-02-26T09:50:58;10.20;99.90
17728;DHT22;8984;49.268;12.302;2024-02-26T09:53:26;10.10;99.90
17728;DHT22;8984;49.268;12.302;2024-02-26T09:55:53;10.10;99.90
17728;DHT22;8984;49.268;12.302;2024-02-26T09:58:21;10.10;99.90
17728;DHT22;8984;49.268;12.302;2024-02-26T10:00:53;10.20;99.90
17728;DHT22;8984;49.268;12.302;2024-02-26T10:03:27;10.20;99.90
17728;DHT22;8984;49.268;12.302;2024-02-26T10:05:54;10.20;99.90
17728;DHT22;8984;49.268;12.302;2024-02-26T10:08:25;10.20;99.90
17728;DHT22;8984;49.268;12.302;2024-02-26T10:10:54;10.30;99.90
17728;DHT22;8984;49.268;12.302;2024-02-26T10:13:21;10.20;99.90
17728;DHT22;8984;49.268;12.302;2024-02-26T10:15:48;10.20;99.90
17728;DHT22;8984;49.268;12.302;2024-02-26T10:18:15;10.20;99.90
17728;DHT22;8984;49.268;12.302;2024-02-26T10:20:42;10.30;99.90
17728;DHT22;8984;49.268;12.302;2024-02-26T10:23:09;10.40;99.90
17728;DHT22;8984;49.268;12.302;2024-02-26T10:25:47;10.50;99.90
17728;DHT22;8984;49.268;12.302;2024-02-26T10:28:18;10.70;99.90
17728;DHT22;8984;49.268;12.302;2024-02-26T10:30:45;10.50;99.90
17728;DHT22;8984;49.268;12.302;2024-02-26T10:33:13;10.60;99.90
17728;DHT22;8984;49.268;12.302;2024-02-26T10:35:40;10.70;99.90
17728;DHT22;8984;49.268;12.302;2024-02-26T10:38:07;10.80;99.90
17728;DHT22;8984;49.268;12.302;2024-02-26T10:40:34;11.20;99.90
17728;DHT22;8984;49.268;12.302;2024-02-26T10:43:02;11.10;99.90
17728;DHT22;8984;49.268;12.302;2024-02-26T10:45:29;11.30;99.90
17728;DHT22;8984;49.268;12.302;2024-02-26T10:47:56;11.50;99.90
17728;DHT22;8984;49.268;12.302;2024-02-26T10:50:23;11.50;99.90
17728;DHT22;8984;49.268;12.302;2024-02-26T10:52:50;11.50;99.90
17728;DHT22;8984;49.268;12.302;2024-02-26T10:55:19;11.60;99.90
17728;DHT22;8984;49.268;12.302;2024-02-26T10:57:50;11.40;99.90
17728;DHT22;8984;49.268;12.302;2024-02-26T11:00:20;11.40;99.90
17728;DHT22;8984;49.268;12.302;2024-02-26T11:02:48;11.50;99.90
17728;DHT22;8984;49.268;12.302;2024-02-26T11:05:15;11.50;99.90
17728;DHT22;8984;49.268;12.302;2024-02-26T11:07:44;11.70;99.90
17728;DHT22;8984;49.268;12.302;2024-02-26T11:10:13;11.60;99.90
17728;DHT22;8984;49.268;12.302;2024-02-26T11:12:41;11.50;99.90
17728;DHT22;8984;49.268;12.302;2024-02-26T11:15:11;11.50;99.90
17728;DHT22;8984;49.268;12.302;2024-02-26T11:18:01;11.50;99.90
17728;DHT22;8984;49.268;12.302;2024-02-26T11:20:40;11.70;99.90
17728;DHT22;8984;49.268;12.302;2024-02-26T11:23:09;11.60;99.90
17728;DHT22;8984;49.268;12.302;2024-02-26T11:25:51;11.90;99.90
17728;DHT22;8984;49.268;12.302;2024-02-26T11:28:22;12.00;99.90
17728;DHT22;8984;49.268;12.302;2024-02-26T11:31:11;12.00;99.90
17728;DHT22;8984;49.268;12.302;2024-02-26T11:33:57;12.10;99.90
17728;DHT22;8984;49.268;12.302;2024-02-26T11:36:25;12.20;99.90
17728;DHT22;8984;49.268;12.302;2024-02-26T11:39:13;12.20;99.90
17728;DHT22;8984;49.268;12.302;2024-02-26T11:41:56;12.30;99.90
17728;DHT22;8984;49.268;12.302;2024-02-26T11:44:49;12.40;99.90
17728;DHT22;8984;49.268;12.302;2024-02-26T11:47:22;12.40;99.90
17728;DHT22;8984;49.268;12.302;2024-02-26T11:56:30;12.30;99.90
17728;DHT22;8984;49.268;12.302;2024-02-26T11:59:10;12.20;99.90
17728;DHT22;8984;49.268;12.302;2024-02-26T12:01:44;12.20;99.90
17728;DHT22;8984;49.268;12.302;2024-02-26T12:04:16;12.10;99.90
17728;DHT22;8984;49.268;12.302;2024-02-26T12:06:48;12.20;99.90
17728;DHT22;8984;49.268;12.302;2024-02-26T12:09:42;12.10;99.90
17728;DHT22;8984;49.268;12.302;2024-02-26T12:12:18;11.90;99.90
17728;DHT22;8984;49.268;12.302;2024-02-26T12:14:59;11.80;99.90
17728;DHT22;8984;49.268;12.302;2024-02-26T12:17:31;11.80;99.90
17728;DHT22;8984;49.268;12.302;2024-02-26T12:20:08;11.80;99.90
17728;DHT22;8984;49.268;12.302;2024-02-26T12:22:46;11.90;99.90
17728;DHT22;8984;49.268;12.302;2024-02-26T12:25:14;12.00;99.90
17728;DHT22;8984;49.268;12.302;2024-02-26T12:27:49;12.20;99.90
17728;DHT22;8984;49.268;12.302;2024-02-26T12:30:24;12.30;99.90
17728;DHT22;8984;49.268;12.302;2024-02-26T12:33:02;12.20;99.90
17728;DHT22;8984;49.268;12.302;2024-02-26T12:35:30;12.00;99.90
17728;DHT22;8984;49.268;12.302;2024-02-26T12:37:59;12.20;99.90
17728;DHT22;8984;49.268;12.302;2024-02-26T12:40:31;12.10;99.90
17728;DHT22;8984;49.268;12.302;2024-02-26T12:43:08;12.20;99.90
17728;DHT22;8984;49.268;12.302;2024-02-26T12:45:39;12.30;99.90
17728;DHT22;8984;49.268;12.302;2024-02-26T12:48:09;12.50;99.90
17728;DHT22;8984;49.268;12.302;2024-02-26T12:50:38;12.30;99.90
17728;DHT22;8984;49.268;12.302;2024-02-26T12:53:11;12.30;99.90
17728;DHT22;8984;49.268;12.302;2024-02-26T12:55:40;12.20;99.90
17728;DHT22;8984;49.268;12.302;2024-02-26T12:58:33;12.20;99.90
17728;DHT22;8984;49.268;12.302;2024-02-26T13:01:16;12.00;99.90
17728;DHT22;8984;49.268;12.302;2024-02-26T13:03:46;11.80;99.90
17728;DHT22;8984;49.268;12.302;2024-02-26T13:06:18;11.70;99.90
17728;DHT22;8984;49.268;12.302;2024-02-26T13:08:48;11.70;99.90
17728;DHT22;8984;49.268;12.302;2024-02-26T13:11:16;11.60;99.90
17728;DHT22;8984;49.268;12.302;2024-02-26T13:13:48;11.70;99.90
17728;DHT22;8984;49.268;12.302;2024-02-26T13:16:17;11.50;99.90
17728;DHT22;8984;49.268;12.302;2024-02-26T13:18:47;11.30;99.90
17728;DHT22;8984;49.268;12.302;2024-02-26T13:21:23;11.40;99.90
17728;DHT22;8984;49.268;12.302;2024-02-26T13:23:54;11.50;99.90
17728;DHT22;8984;49.268;12.302;2024-02-26T13:26:26;11.30;99.90
17728;DHT22;8984;49.268;12.302;2024-02-26T13:29:06;11.40;99.90
17728;DHT22;8984;49.268;12.302;2024-02-26T13:31:42;11.40;99.90
17728;DHT22;8984;49.268;12.302;2024-02-26T13:34:11;11.30;99.90
17728;DHT22;8984;49.268;12.302;2024-02-26T13:36:56;11.30;99.90
17728;DHT22;8984;49.268;12.302;2024-02-26T13:39:42;11.40;99.90
17728;DHT22;8984;49.268;12.302;2024-02-26T13:42:15;11.40;99.90
17728;DHT22;8984;49.268;12.302;2024-02-26T13:44:52;11.60;99.90
17728;DHT22;8984;49.268;12.302;2024-02-26T13:47:22;11.80;99.90
17728;DHT22;8984;49.268;12.302;2024-02-26T13:49:53;12.00;99.90
17728;DHT22;8984;49.268;12.302;2024-02-26T13:52:31;12.00;99.90
17728;DHT22;8984;49.268;12.302;2024-02-26T13:55:01;12.00;99.90
17728;DHT22;8984;49.268;12.302;2024-02-26T13:57:30;12.20;99.90
17728;DHT22;8984;49.268;12.302;2024-02-26T14:00:07;12.00;99.90
17728;DHT22;8984;49.268;12.302;2024-02-26T14:05:21;12.10;99.90
17728;DHT22;8984;49.268;12.302;2024-02-26T14:07:52;12.20;99.90
17728;DHT22;8984;49.268;12.302;2024-02-26T14:10:21;12.30;99.90
17728;DHT22;8984;49.268;12.302;2024-02-26T14:12:50;12.30;99.90
17728;DHT22;8984;49.268;12.302;2024-02-26T14:15:25;12.30;99.90
17728;DHT22;8984;49.268;12.302;2024-02-26T14:18:07;12.20;99.90
17728;DHT22;8984;49.268;12.302;2024-02-26T14:20:36;12.10;99.90
17728;DHT22;8984;49.268;12.302;2024-02-26T14:23:09;12.10;99.90
17728;DHT22;8984;49.268;12.302;2024-02-26T14:25:39;12.00;99.90
17728;DHT22;8984;49.268;12.302;2024-02-26T14:28:16;12.00;99.90
17728;DHT22;8984;49.268;12.302;2024-02-26T14:30:56;12.30;99.90
17728;DHT22;8984;49.268;12.302;2024-02-26T14:33:32;12.10;99.90
17728;DHT22;8984;49.268;12.302;2024-02-26T14:36:15;11.80;99.90
17728;DHT22;8984;49.268;12.302;2024-02-26T14:38:54;12.00;99.90
17728;DHT22;8984;49.268;12.302;2024-02-26T14:41:23;11.90;99.90
17728;DHT22;8984;49.268;12.302;2024-02-26T14:43:51;11.90;99.90
17728;DHT22;8984;49.268;12.302;2024-02-26T14:46:26;11.90;99.90
17728;DHT22;8984;49.268;12.302;2024-02-26T14:49:00;11.90;99.90
17728;DHT22;8984;49.268;12.302;2024-02-26T14:51:32;11.60;99.90
17728;DHT22;8984;49.268;12.302;2024-02-26T14:54:11;11.40;99.90
17728;DHT22;8984;49.268;12.302;2024-02-26T14:56:42;11.40;99.90
17728;DHT22;8984;49.268;12.302;2024-02-26T14:59:09;11.40;99.90
17728;DHT22;8984;49.268;12.302;2024-02-26T15:04:34;11.40;99.90
17728;DHT22;8984;49.268;12.302;2024-02-26T15:07:01;11.40;99.90
17728;DHT22;8984;49.268;12.302;2024-02-26T15:09:28;11.30;99.90
17728;DHT22;8984;49.268;12.302;2024-02-26T15:11:54;11.30;99.90
17728;DHT22;8984;49.268;12.302;2024-02-26T15:14:22;11.20;99.90
17728;DHT22;8984;49.268;12.302;2024-02-26T15:16:51;11.00;99.90
17728;DHT22;8984;49.268;12.302;2024-02-26T15:19:18;10.90;99.90
17728;DHT22;8984;49.268;12.302;2024-02-26T15:21:47;11.00;99.90
17728;DHT22;8984;49.268;12.302;2024-02-26T15:24:14;11.00;99.90
17728;DHT22;8984;49.268;12.302;2024-02-26T15:26:43;11.10;99.90
17728;DHT22;8984;49.268;12.302;2024-02-26T15:29:10;11.00;99.90
17728;DHT22;8984;49.268;12.302;2024-02-26T15:31:37;11.00;99.90
17728;DHT22;8984;49.268;12.302;2024-02-26T15:34:04;10.90;99.90
17728;DHT22;8984;49.268;12.302;2024-02-26T15:36:31;10.80;99.90
17728;DHT22;8984;49.268;12.302;2024-02-26T15:38:59;10.60;99.90
17728;DHT22;8984;49.268;12.302;2024-02-26T15:41:26;10.70;99.90
17728;DHT22;8984;49.268;12.302;2024-02-26T15:43:52;10.50;99.90
17728;DHT22;8984;49.268;12.302;2024-02-26T15:46:19;10.60;99.90
17728;DHT22;8984;49.268;12.302;2024-02-26T15:48:46;10.60;99.90
17728;DHT22;8984;49.268;12.302;2024-02-26T15:51:20;10.50;99.90
17728;DHT22;8984;49.268;12.302;2024-02-26T15:53:50;10.50;99.90
17728;DHT22;8984;49.268;12.302;2024-02-26T15:56:19;10.10;99.90
17728;DHT22;8984;49.268;12.302;2024-02-26T15:58:49;10.10;99.90
17728;DHT22;8984;49.268;12.302;2024-02-26T16:01:16;10.10;99.90
17728;DHT22;8984;49.268;12.302;2024-02-26T16:03:43;10.20;99.90
17728;DHT22;8984;49.268;12.302;2024-02-26T16:06:14;10.00;99.90
17728;DHT22;8984;49.268;12.302;2024-02-26T16:08:43;9.90;99.90
17728;DHT22;8984;49.268;12.302;2024-02-26T16:11:11;9.80;99.90
17728;DHT22;8984;49.268;12.302;2024-02-26T16:13:39;9.60;99.90
17728;DHT22;8984;49.268;12.302;2024-02-26T16:16:09;9.60;99.90